Time;durP1;ratioP1;P1;durP2;ratioP2;P2;SDS_P1;SDS_P2;PMS_P1;PMS_P2;Temp;Humidity;BMP_temperature;BMP_pressure;BME280_temperature;BME280_humidity;BME280_pressure;Samples;Min_cycle;Max_cycle;Signal;HPM_P1;HPM_P2
2022/04/23 00:00:35;;;;;;;;;;;;;;;23.40;62.50;95947.88;586681;242;65414;-72
2022/04/23 00:03:03;;;;;;;;;;;;;;;23.40;62.40;95931.79;586674;242;67078;-72
2022/04/23 00:05:30;;;;;;;;;;;;;;;23.39;63.33;95940.95;586702;242;66650;-72
2022/04/23 00:07:58;;;;;;;;;;;;;;;23.38;62.20;95932.12;586680;242;65350;-73
2022/04/23 00:10:25;;;;;;;;;;;;;;;23.38;62.02;95923.26;586661;242;66832;-73
2022/04/23 00:12:54;;;;;;;;;;;;;;;23.38;62.08;95925.94;586715;242;67241;-72
2022/04/23 00:15:25;;;;;;;;;;;;;;;23.37;62.31;95933.20;586696;242;63011;-72
2022/04/23 00:17:52;;;;;;;;;;;;;;;23.37;61.26;95933.20;586705;242;66902;-72
2022/04/23 00:20:19;;;;;;;;;;;;;;;23.37;61.32;95941.25;586708;242;66710;-72
2022/04/23 00:22:47;;;;;;;;;;;;;;;23.36;61.45;95952.30;586694;242;65404;-72
2022/04/23 00:25:15;;;;;;;;;;;;;;;23.36;61.65;95950.40;586636;242;64572;-72
2022/04/23 00:27:42;;;;;;;;;;;;;;;23.36;61.39;95952.30;583469;242;64533;-72
2022/04/23 00:30:10;;;;;;;;;;;;;;;23.35;61.59;95954.16;586677;242;64202;-72
2022/04/23 00:32:38;;;;;;;;;;;;;;;23.35;61.40;95942.66;586594;242;67333;-73
2022/04/23 00:35:06;;;;;;;;;;;;;;;23.34;61.25;95960.64;586693;242;66782;-73
2022/04/23 00:37:34;;;;;;;;;;;;;;;23.33;61.37;95948.34;586649;242;65429;-72
2022/04/23 00:40:06;;;;;;;;;;;;;;;23.33;61.80;95952.92;586708;242;66630;-73
2022/04/23 00:42:31;;;;;;;;;;;;;;;23.33;61.72;95951.02;586594;242;66120;-72
2022/04/23 00:44:58;;;;;;;;;;;;;;;23.32;61.45;95946.75;586668;242;63276;-72
2022/04/23 00:47:26;;;;;;;;;;;;;;;23.33;61.82;95948.34;586697;242;64271;-73
2022/04/23 00:49:54;;;;;;;;;;;;;;;23.31;61.66;95945.18;586690;242;66813;-73
2022/04/23 00:52:21;;;;;;;;;;;;;;;23.33;61.59;95942.20;586691;242;66372;-72
2022/04/23 00:54:49;;;;;;;;;;;;;;;23.32;61.92;95940.59;586694;242;66569;-73
2022/04/23 00:57:16;;;;;;;;;;;;;;;23.31;61.93;95949.75;586725;242;66389;-73
2022/04/23 00:59:44;;;;;;;;;;;;;;;23.31;61.48;95939.81;583032;242;65386;-72
2022/04/23 01:02:12;;;;;;;;;;;;;;;23.31;62.18;95944.39;586279;242;66652;-73
2022/04/23 01:04:40;;;;;;;;;;;;;;;23.30;62.19;95940.12;586181;241;66667;-72
2022/04/23 01:07:11;;;;;;;;;;;;;;;23.29;61.77;95939.33;586608;241;65153;-72
2022/04/23 01:09:37;;;;;;;;;;;;;;;23.28;61.68;95943.12;586601;241;64350;-72
2022/04/23 01:12:06;;;;;;;;;;;;;;;23.28;62.93;95935.08;586648;242;65443;-72
2022/04/23 01:14:33;;;;;;;;;;;;;;;23.28;62.36;95934.30;586552;242;65602;-73
2022/04/23 01:17:00;;;;;;;;;;;;;;;23.27;61.58;95933.48;586619;241;67234;-73
2022/04/23 01:19:29;;;;;;;;;;;;;;;23.26;61.13;95942.64;586539;242;66644;-72
2022/04/23 01:21:57;;;;;;;;;;;;;;;23.26;61.50;95948.00;586584;242;65446;-73
2022/04/23 01:24:25;;;;;;;;;;;;;;;23.25;61.47;95947.22;586566;242;66742;-73
2022/04/23 01:26:53;;;;;;;;;;;;;;;23.26;62.05;95969.44;586601;242;64649;-72
2022/04/23 01:29:22;;;;;;;;;;;;;;;23.23;62.75;95965.49;586609;242;63012;-73
2022/04/23 01:31:50;;;;;;;;;;;;;;;23.25;63.55;95973.23;586593;242;66774;-72
2022/04/23 01:34:18;;;;;;;;;;;;;;;23.24;62.54;95974.31;585684;241;64696;-73
2022/04/23 01:36:45;;;;;;;;;;;;;;;23.24;63.30;95982.36;585572;242;63270;-73
2022/04/23 01:39:12;;;;;;;;;;;;;;;23.22;62.38;95989.94;585529;242;64673;-73
2022/04/23 01:41:40;;;;;;;;;;;;;;;23.23;63.24;95986.15;585633;242;66458;-73
2022/04/23 01:44:08;;;;;;;;;;;;;;;23.22;62.61;95995.30;585496;242;65388;-72
2022/04/23 01:46:35;;;;;;;;;;;;;;;23.22;62.13;95989.94;585573;240;66696;-73
2022/04/23 01:49:03;;;;;;;;;;;;;;;23.21;61.73;95988.34;585697;241;66731;-72
2022/04/23 01:51:30;;;;;;;;;;;;;;;23.20;62.91;95995.59;585613;242;65178;-72
2022/04/23 01:53:58;;;;;;;;;;;;;;;23.19;62.89;95995.89;585486;242;66816;-73
2022/04/23 01:56:25;;;;;;;;;;;;;;;23.19;62.81;95996.70;585733;241;66357;-72
2022/04/23 01:58:53;;;;;;;;;;;;;;;23.18;61.77;95995.11;585618;241;65455;-72
2022/04/23 02:01:20;;;;;;;;;;;;;;;23.19;62.02;95988.67;585591;242;66555;-72
2022/04/23 02:03:50;;;;;;;;;;;;;;;23.17;61.68;95993.54;585566;241;66625;-72
2022/04/23 02:06:17;;;;;;;;;;;;;;;23.17;62.16;95993.54;585563;242;66271;-72
2022/04/23 02:08:44;;;;;;;;;;;;;;;23.17;62.23;95996.22;585638;241;66608;-72
2022/04/23 02:11:12;;;;;;;;;;;;;;;23.18;63.12;95997.01;585496;242;66353;-72
2022/04/23 02:13:39;;;;;;;;;;;;;;;23.16;62.41;95991.16;585639;242;65246;-72
2022/04/23 02:16:07;;;;;;;;;;;;;;;23.16;63.12;95991.16;585510;242;66619;-72
2022/04/23 02:18:37;;;;;;;;;;;;;;;23.16;62.95;95994.66;585652;242;64360;-72
2022/04/23 02:21:04;;;;;;;;;;;;;;;23.16;62.63;95996.52;585506;242;65556;-72
2022/04/23 02:23:32;;;;;;;;;;;;;;;23.16;62.79;96028.68;585556;242;66230;-72
2022/04/23 02:25:59;;;;;;;;;;;;;;;23.15;62.13;96059.27;585532;241;64300;-72
2022/04/23 02:28:27;;;;;;;;;;;;;;;23.14;63.21;96057.70;585600;242;65471;-72
2022/04/23 02:30:56;;;;;;;;;;;;;;;23.14;63.09;96063.84;585663;241;64653;-72
2022/04/23 02:33:24;;;;;;;;;;;;;;;23.12;63.17;96060.67;585565;242;66391;-72
2022/04/23 02:35:51;;;;;;;;;;;;;;;23.12;62.85;96065.25;585594;242;65503;-72
2022/04/23 02:38:19;;;;;;;;;;;;;;;23.12;63.41;96065.25;585874;240;66608;-72
2022/04/23 02:40:46;;;;;;;;;;;;;;;23.10;62.90;96062.86;585555;242;68315;-72
2022/04/23 02:43:13;;;;;;;;;;;;;;;23.12;63.01;96081.33;585599;241;65149;-72
2022/04/23 02:45:41;;;;;;;;;;;;;;;23.10;64.07;96081.63;585632;242;66474;-72
2022/04/23 02:48:10;;;;;;;;;;;;;;;23.09;62.02;96080.05;585651;241;65014;-73
2022/04/23 02:50:38;;;;;;;;;;;;;;;23.10;62.55;96089.66;585660;241;65458;-73
2022/04/23 02:53:07;;;;;;;;;;;;;;;23.08;62.65;96091.06;585514;242;66606;-73
2022/04/23 02:55:35;;;;;;;;;;;;;;;23.06;62.91;96090.60;585584;242;64323;-73
2022/04/23 02:58:10;;;;;;;;;;;;;;;23.06;64.19;96096.75;585712;241;63372;-73
2022/04/23 03:00:41;;;;;;;;;;;;;;;23.07;62.52;96089.49;585607;242;66612;-73
2022/04/23 03:03:09;;;;;;;;;;;;;;;23.05;64.62;96095.14;585640;241;66378;-74
2022/04/23 03:05:41;;;;;;;;;;;;;;;23.07;61.99;96098.31;585573;241;65419;-74
2022/04/23 03:08:06;;;;;;;;;;;;;;;23.06;62.62;96098.64;585570;242;66499;-74
2022/04/23 03:10:34;;;;;;;;;;;;;;;23.05;62.65;96100.50;585681;242;66168;-74
2022/04/23 03:13:01;;;;;;;;;;;;;;;23.04;62.78;96106.97;585559;242;65541;-74
2022/04/23 03:15:29;;;;;;;;;;;;;;;23.03;63.85;96097.36;585654;242;66523;-74
2022/04/23 03:18:12;;;;;;;;;;;;;;;23.01;63.48;96097.66;585619;241;66613;-74
2022/04/23 03:20:43;;;;;;;;;;;;;;;23.02;62.72;96101.13;585640;242;65370;-74
2022/04/23 03:23:12;;;;;;;;;;;;;;;23.02;63.81;96103.80;585536;242;66669;-73
2022/04/23 03:25:41;;;;;;;;;;;;;;;23.02;63.58;96106.48;585595;241;66233;-73
2022/04/23 03:28:08;;;;;;;;;;;;;;;23.00;64.02;96100.66;585653;242;65417;-73
2022/04/23 03:30:36;;;;;;;;;;;;;;;23.00;63.97;96114.05;585540;242;66544;-73
2022/04/23 03:33:04;;;;;;;;;;;;;;;22.99;65.00;96107.88;585570;242;66368;-73
2022/04/23 03:35:31;;;;;;;;;;;;;;;23.00;64.22;96106.02;585623;242;62712;-73
2022/04/23 03:37:59;;;;;;;;;;;;;;;22.98;63.35;96106.30;585608;242;64727;-73
2022/04/23 03:40:26;;;;;;;;;;;;;;;23.00;63.41;96106.02;585629;241;64106;-73
2022/04/23 03:42:54;;;;;;;;;;;;;;;22.97;63.97;96114.64;585550;242;62987;-73
2022/04/23 03:45:23;;;;;;;;;;;;;;;22.97;64.44;96115.45;585742;241;66850;-73
2022/04/23 03:47:51;;;;;;;;;;;;;;;22.95;63.59;96114.93;585800;241;64388;-73
2022/04/23 03:50:20;;;;;;;;;;;;;;;22.94;63.66;96118.69;585604;241;65113;-73
2022/04/23 03:52:48;;;;;;;;;;;;;;;22.95;63.18;96124.86;585972;240;66413;-73
2022/04/23 03:55:16;;;;;;;;;;;;;;;22.95;63.36;96127.54;585573;242;64119;-73
2022/04/23 03:57:47;;;;;;;;;;;;;;;22.95;64.63;96132.90;585568;242;65538;-73
2022/04/23 04:00:15;;;;;;;;;;;;;;;22.94;64.48;96134.77;585651;241;66721;-73
2022/04/23 04:02:44;;;;;;;;;;;;;;;22.94;63.66;96121.36;585630;241;65956;-73
2022/04/23 04:05:11;;;;;;;;;;;;;;;22.93;63.87;96116.33;586340;240;65285;-73
2022/04/23 04:07:45;;;;;;;;;;;;;;;22.92;63.62;96110.19;585629;241;66636;-73
2022/04/23 04:10:13;;;;;;;;;;;;;;;22.92;64.25;96120.11;585688;241;67321;-73
2022/04/23 04:12:41;;;;;;;;;;;;;;;22.90;64.26;96117.73;585604;242;62717;-73
2022/04/23 04:15:15;;;;;;;;;;;;;;;22.90;65.38;96119.63;585626;241;64470;-73
2022/04/23 04:17:43;;;;;;;;;;;;;;;22.90;63.91;96108.91;585669;241;66477;-74
2022/04/23 04:20:12;;;;;;;;;;;;;;;22.89;64.19;96109.98;585568;242;65492;-74
2022/04/23 04:22:40;;;;;;;;;;;;;;;22.91;63.82;96105.12;585634;242;66871;-74
2022/04/23 04:25:09;;;;;;;;;;;;;;;22.89;63.59;96093.91;585592;241;63888;-74
2022/04/23 04:27:38;;;;;;;;;;;;;;;22.89;63.37;96093.91;585635;241;65669;-74
2022/04/23 04:30:07;;;;;;;;;;;;;;;22.88;63.48;96092.34;585575;242;64476;-74
2022/04/23 04:32:34;;;;;;;;;;;;;;;22.87;64.33;96082.73;585607;242;66716;-74
2022/04/23 04:35:01;;;;;;;;;;;;;;;22.87;64.44;96077.38;586269;241;65460;-74
2022/04/23 04:37:29;;;;;;;;;;;;;;;22.85;64.69;96077.66;586169;241;64175;-74
2022/04/23 04:39:56;;;;;;;;;;;;;;;22.87;64.53;96082.73;586567;240;64023;-74
2022/04/23 04:42:27;;;;;;;;;;;;;;;22.86;64.95;96073.88;586682;241;46715;-74
2022/04/23 04:44:54;;;;;;;;;;;;;;;22.84;64.02;96076.09;586596;242;66588;-74
2022/04/23 04:47:23;;;;;;;;;;;;;;;22.83;63.79;96072.62;586623;242;66145;-74
2022/04/23 04:49:53;;;;;;;;;;;;;;;22.84;65.19;96065.38;586684;242;66286;-74
2022/04/23 04:52:20;;;;;;;;;;;;;;;22.83;65.17;96069.95;586646;241;63599;-74
2022/04/23 04:54:48;;;;;;;;;;;;;;;22.82;64.44;96071.02;586616;242;63886;-74
2022/04/23 04:57:15;;;;;;;;;;;;;;;22.82;63.81;96068.34;586586;242;65362;-74
2022/04/23 04:59:43;;;;;;;;;;;;;;;22.82;64.28;96067.56;586639;242;66706;-74
2022/04/23 05:02:10;;;;;;;;;;;;;;;22.82;65.64;96072.92;586547;242;66217;-74
2022/04/23 05:04:38;;;;;;;;;;;;;;;22.81;64.60;96066.77;586691;242;65172;-74
2022/04/23 05:07:07;;;;;;;;;;;;;;;22.82;65.00;96071.02;586585;242;63842;-74
2022/04/23 05:09:34;;;;;;;;;;;;;;;22.80;64.14;96070.53;586600;242;63964;-74
2022/04/23 05:12:02;;;;;;;;;;;;;;;22.80;65.48;96070.53;586608;242;65170;-74
2022/04/23 05:14:30;;;;;;;;;;;;;;;22.81;64.30;96072.13;586612;241;66537;-74
2022/04/23 05:16:59;;;;;;;;;;;;;;;22.79;64.70;96065.50;586617;242;66510;-74
2022/04/23 05:19:26;;;;;;;;;;;;;;;22.79;64.47;96073.53;586669;242;65192;-74
2022/04/23 05:21:54;;;;;;;;;;;;;;;22.78;64.74;96075.42;586582;241;66594;-74
2022/04/23 05:24:24;;;;;;;;;;;;;;;22.78;64.66;96072.75;586460;242;66362;-74
2022/04/23 05:26:50;;;;;;;;;;;;;;;22.78;64.36;96082.64;586480;242;63045;-74
2022/04/23 05:29:18;;;;;;;;;;;;;;;22.77;65.49;96081.07;586463;242;64263;-74
2022/04/23 05:31:45;;;;;;;;;;;;;;;22.76;64.80;96085.64;586514;240;66402;-74
2022/04/23 05:34:13;;;;;;;;;;;;;;;22.76;64.69;96079.50;585596;241;65398;-74
2022/04/23 05:36:40;;;;;;;;;;;;;;;22.75;65.22;96078.72;585578;240;66587;-74
2022/04/23 05:39:08;;;;;;;;;;;;;;;22.76;65.45;96091.00;585516;242;66265;-74
2022/04/23 05:41:35;;;;;;;;;;;;;;;22.74;64.35;96077.12;585402;242;66264;-74
2022/04/23 05:44:03;;;;;;;;;;;;;;;22.74;65.03;96082.47;585534;240;66622;-74
2022/04/23 05:46:30;;;;;;;;;;;;;;;22.73;64.63;96074.76;585423;239;67146;-74
2022/04/23 05:48:59;;;;;;;;;;;;;;;22.72;64.80;96076.63;585467;240;62150;-74
2022/04/23 05:51:27;;;;;;;;;;;;;;;22.73;64.24;96088.15;585425;242;66638;-74
2022/04/23 05:53:55;;;;;;;;;;;;;;;22.72;64.78;96081.98;585593;240;64269;-74
2022/04/23 05:56:22;;;;;;;;;;;;;;;22.72;64.29;96081.98;585563;240;63922;-74
2022/04/23 05:58:50;;;;;;;;;;;;;;;22.71;65.08;96084.98;585439;242;64437;-74
2022/04/23 06:01:17;;;;;;;;;;;;;;;22.71;64.92;96079.62;585465;242;64595;-74
2022/04/23 06:03:45;;;;;;;;;;;;;;;22.70;65.10;96092.23;585430;242;65536;-73
2022/04/23 06:06:12;;;;;;;;;;;;;;;22.70;65.39;96089.55;585460;242;64105;-73
2022/04/23 06:08:42;;;;;;;;;;;;;;;22.69;65.09;96085.27;585514;240;64333;-73
2022/04/23 06:11:10;;;;;;;;;;;;;;;22.69;64.38;96085.27;585574;240;62819;-73
2022/04/23 06:13:37;;;;;;;;;;;;;;;22.69;65.60;96082.59;586662;239;64917;-73
2022/04/23 06:16:05;;;;;;;;;;;;;;;22.69;66.18;96082.59;585814;240;66763;-73
2022/04/23 06:18:32;;;;;;;;;;;;;;;22.69;65.01;96087.95;585476;239;65266;-73
2022/04/23 06:21:00;;;;;;;;;;;;;;;22.70;65.18;96092.23;585483;242;64346;-73
2022/04/23 06:23:27;;;;;;;;;;;;;;;22.68;65.15;96089.05;585401;242;64429;-73
2022/04/23 06:25:55;;;;;;;;;;;;;;;22.69;64.34;96095.98;585454;240;63094;-73
2022/04/23 06:28:22;;;;;;;;;;;;;;;22.70;64.03;96100.26;585470;242;66880;-73
2022/04/23 06:30:51;;;;;;;;;;;;;;;22.69;64.08;96100.55;585423;242;66585;-73
2022/04/23 06:33:19;;;;;;;;;;;;;;;22.70;64.54;96100.26;585468;240;65500;-73
2022/04/23 06:35:46;;;;;;;;;;;;;;;22.70;64.67;96105.62;585427;242;66876;-73
2022/04/23 06:38:14;;;;;;;;;;;;;;;22.70;64.19;96102.94;585476;240;66640;-73
2022/04/23 06:40:41;;;;;;;;;;;;;;;22.70;64.45;96102.94;585417;242;65342;-73
2022/04/23 06:43:08;;;;;;;;;;;;;;;22.70;64.02;96102.94;585576;240;66880;-73
2022/04/23 06:45:38;;;;;;;;;;;;;;;22.69;64.84;96108.58;585413;242;45244;-73
2022/04/23 06:48:05;;;;;;;;;;;;;;;22.69;65.17;96112.05;585489;242;65431;-73
2022/04/23 06:50:33;;;;;;;;;;;;;;;22.69;64.34;96113.94;585437;242;64621;-73
2022/04/23 06:53:01;;;;;;;;;;;;;;;22.70;64.42;96113.66;585510;240;64096;-73
2022/04/23 06:55:29;;;;;;;;;;;;;;;22.70;65.04;96119.01;585475;240;65179;-73
2022/04/23 06:57:57;;;;;;;;;;;;;;;22.69;65.02;96121.98;585572;240;67002;-73
2022/04/23 07:00:25;;;;;;;;;;;;;;;22.70;63.54;96110.16;585424;242;67823;-73
2022/04/23 07:02:52;;;;;;;;;;;;;;;22.69;65.48;96112.05;585420;242;65534;-73
2022/04/23 07:05:20;;;;;;;;;;;;;;;22.68;64.52;96115.83;585470;240;66598;-73
2022/04/23 07:08:01;;;;;;;;;;;;;;;22.68;65.16;96121.19;585490;242;66830;-73
2022/04/23 07:10:30;;;;;;;;;;;;;;;22.68;64.31;96112.37;585472;242;63345;-73
2022/04/23 07:12:57;;;;;;;;;;;;;;;22.68;64.95;96113.16;585577;242;64404;-73
2022/04/23 07:15:27;;;;;;;;;;;;;;;22.69;65.34;96116.62;585674;240;64421;-73
2022/04/23 07:17:55;;;;;;;;;;;;;;;22.70;65.45;96123.55;585508;242;65936;-73
2022/04/23 07:20:22;;;;;;;;;;;;;;;22.66;64.00;96131.41;585541;242;66566;-73
2022/04/23 07:25:36;;;;;;;;;;;;;;;22.66;65.20;96144.80;585535;240;65261;-74
2022/04/23 07:28:07;;;;;;;;;;;;;;;22.67;64.31;96149.08;585635;240;64954;-72
2022/04/23 07:30:35;;;;;;;;;;;;;;;22.66;65.38;96150.16;585499;242;64637;-72
2022/04/23 07:33:05;;;;;;;;;;;;;;;22.68;65.17;96157.90;585597;240;45275;-72
2022/04/23 07:38:21;;;;;;;;;;;;;;;22.66;65.22;96160.87;585459;242;64660;-74
2022/04/23 07:40:50;;;;;;;;;;;;;;;22.66;65.04;96155.51;585509;240;65413;-74
2022/04/23 07:43:18;;;;;;;;;;;;;;;22.65;65.61;96153.94;585497;241;64622;-74
2022/04/23 07:45:46;;;;;;;;;;;;;;;22.67;64.97;96150.94;585424;242;64464;-75
2022/04/23 07:48:14;;;;;;;;;;;;;;;22.66;65.41;96160.87;585535;240;65398;-74
2022/04/23 07:50:43;;;;;;;;;;;;;;;22.65;64.63;96159.30;585757;240;66773;-74
2022/04/23 07:53:28;;;;;;;;;;;;;;;22.65;64.53;96161.97;585490;242;66881;-74
2022/04/23 07:55:56;;;;;;;;;;;;;;;22.66;65.29;96157.40;583732;240;66745;-74
2022/04/23 07:58:24;;;;;;;;;;;;;;;22.64;64.87;96157.69;585155;241;64633;-74
2022/04/23 08:00:51;;;;;;;;;;;;;;;22.66;65.28;96155.51;584937;242;66646;-72
2022/04/23 08:03:18;;;;;;;;;;;;;;;22.65;65.36;96158.51;584908;242;65135;-72
2022/04/23 08:05:46;;;;;;;;;;;;;;;22.63;65.93;96161.47;585434;242;66732;-72
2022/04/23 08:08:17;;;;;;;;;;;;;;;22.62;65.01;96154.55;585897;240;64322;-72
2022/04/23 08:10:45;;;;;;;;;;;;;;;22.62;65.62;96157.22;582384;242;63086;-72
2022/04/23 08:13:12;;;;;;;;;;;;;;;22.61;65.57;96152.94;585136;242;64582;-72
2022/04/23 08:15:41;;;;;;;;;;;;;;;22.63;64.95;96155.33;586073;240;64579;-72
2022/04/23 08:18:11;;;;;;;;;;;;;;;22.61;65.87;96152.94;585352;242;65237;-72
2022/04/23 08:20:45;;;;;;;;;;;;;;;22.63;65.02;96155.33;585319;242;64801;-72
2022/04/23 08:23:09;;;;;;;;;;;;;;;22.63;65.27;96155.33;585176;240;64618;-72
2022/04/23 08:25:37;;;;;;;;;;;;;;;22.61;64.84;96158.30;585464;241;65595;-72
2022/04/23 08:30:49;;;;;;;;;;;;;;;22.59;65.19;96152.47;585397;242;64596;-74
2022/04/23 08:33:19;;;;;;;;;;;;;;;22.59;64.73;96153.26;585310;242;63076;-74
2022/04/23 08:35:46;;;;;;;;;;;;;;;22.60;65.45;96140.66;585603;240;66693;-74
2022/04/23 08:38:14;;;;;;;;;;;;;;;22.61;65.25;96152.94;585411;241;66622;-74
2022/04/23 08:40:45;;;;;;;;;;;;;;;22.60;65.03;96144.13;585495;240;66172;-74
2022/04/23 08:43:13;;;;;;;;;;;;;;;22.59;64.99;96145.23;585390;242;67317;-73
2022/04/23 08:45:41;;;;;;;;;;;;;;;22.59;64.19;96145.23;580411;242;64591;-73
2022/04/23 08:48:09;;;;;;;;;;;;;;;22.58;64.30;96142.84;585422;242;63956;-73
2022/04/23 08:50:38;;;;;;;;;;;;;;;22.60;65.33;96151.37;585332;242;66973;-73
2022/04/23 08:53:07;;;;;;;;;;;;;;;22.59;65.00;96137.19;585451;242;66707;-73
2022/04/23 08:55:36;;;;;;;;;;;;;;;22.59;65.09;96134.52;585195;241;41819;-73
2022/04/23 08:58:05;;;;;;;;;;;;;;;22.59;65.46;96139.08;585254;242;48143;-73
2022/04/23 09:00:33;;;;;;;;;;;;;;;22.57;65.92;96135.91;585500;242;66406;-73
2022/04/23 09:03:00;;;;;;;;;;;;;;;22.58;65.72;96140.95;585425;242;65412;-73
2022/04/23 09:05:28;;;;;;;;;;;;;;;22.56;65.48;96135.13;585379;242;66613;-73
2022/04/23 09:07:59;;;;;;;;;;;;;;;22.56;64.69;96140.48;585390;242;66381;-73
2022/04/23 09:10:31;;;;;;;;;;;;;;;22.57;65.56;96141.27;585678;240;68411;-73
2022/04/23 09:12:59;;;;;;;;;;;;;;;22.56;64.95;96151.19;582519;242;66756;-73
2022/04/23 09:23:50;;;;;;;;;;;;;;;22.54;65.53;96152.58;585358;242;64263;-73
2022/04/23 09:26:18;;;;;;;;;;;;;;;22.53;64.24;96150.98;584729;242;63088;-72
2022/04/23 09:28:46;;;;;;;;;;;;;;;22.52;65.02;96152.08;585370;242;66850;-72
2022/04/23 09:31:15;;;;;;;;;;;;;;;22.52;65.58;96155.55;585295;242;66992;-72
2022/04/23 09:33:51;;;;;;;;;;;;;;;22.52;65.93;96152.08;585379;241;63289;-72
2022/04/23 09:36:19;;;;;;;;;;;;;;;22.53;65.55;96153.66;585412;242;66775;-72
2022/04/23 09:38:48;;;;;;;;;;;;;;;22.52;65.51;96157.44;585370;242;66933;-72
2022/04/23 09:41:23;;;;;;;;;;;;;;;22.52;65.49;96155.55;584980;242;63138;-73
2022/04/23 09:43:51;;;;;;;;;;;;;;;22.53;65.43;96150.98;585092;242;66827;-73
2022/04/23 09:46:19;;;;;;;;;;;;;;;22.53;65.49;96156.34;585368;242;64686;-73
2022/04/23 09:48:49;;;;;;;;;;;;;;;22.52;65.80;96162.80;585388;241;62673;-73
2022/04/23 09:51:24;;;;;;;;;;;;;;;22.51;64.77;96163.90;585133;240;64464;-73
2022/04/23 09:53:53;;;;;;;;;;;;;;;22.51;65.30;96167.36;585302;241;64838;-72
2022/04/23 09:56:25;;;;;;;;;;;;;;;22.51;66.13;96174.61;585361;242;65606;-72
2022/04/23 09:58:53;;;;;;;;;;;;;;;22.50;66.06;96167.65;585326;242;65242;-72
2022/04/23 10:01:21;;;;;;;;;;;;;;;22.50;65.09;96167.65;585409;241;64432;-72
2022/04/23 10:03:53;;;;;;;;;;;;;;;22.51;66.04;96164.69;580547;242;46644;-72
2022/04/23 10:06:35;;;;;;;;;;;;;;;22.50;65.12;96168.44;583958;242;44297;-72
2022/04/23 10:09:00;;;;;;;;;;;;;;;22.50;65.96;96167.65;585152;242;48046;-72
2022/04/23 10:11:29;;;;;;;;;;;;;;;22.49;65.69;96166.08;585375;242;65366;-72
2022/04/23 10:14:03;;;;;;;;;;;;;;;22.49;65.35;96166.08;585619;241;66756;-72
2022/04/23 10:16:31;;;;;;;;;;;;;;;22.50;66.09;96173.00;585243;240;66773;-72
2022/04/23 10:18:59;;;;;;;;;;;;;;;22.48;65.11;96169.83;585348;241;65937;-72
2022/04/23 10:21:30;;;;;;;;;;;;;;;22.49;65.79;96187.50;585353;241;65087;-72
2022/04/23 10:23:59;;;;;;;;;;;;;;;22.47;66.92;96184.32;585367;242;66702;-72
2022/04/23 10:26:46;;;;;;;;;;;;;;;22.48;65.59;96188.56;585152;242;63033;-72
2022/04/23 10:29:15;;;;;;;;;;;;;;;22.46;66.68;96172.82;585255;242;66850;-72
2022/04/23 10:31:43;;;;;;;;;;;;;;;22.46;65.86;96172.82;585409;242;63611;-72
2022/04/23 10:34:29;;;;;;;;;;;;;;;22.46;65.26;96174.71;585513;241;63278;-72
2022/04/23 10:37:16;;;;;;;;;;;;;;;22.46;65.96;96169.36;585439;242;66798;-72
2022/04/23 10:39:54;;;;;;;;;;;;;;;22.47;64.96;96157.55;585392;241;66321;-72
2022/04/23 10:42:26;;;;;;;;;;;;;;;22.46;65.78;96172.82;585358;241;63037;-71
2022/04/23 10:44:55;;;;;;;;;;;;;;;22.46;65.85;96172.03;585395;241;66674;-72
2022/04/23 10:47:34;;;;;;;;;;;;;;;22.44;65.48;96171.53;585373;242;64787;-72
2022/04/23 10:50:18;;;;;;;;;;;;;;;22.46;65.56;96172.82;585634;240;65200;-72
2022/04/23 10:52:45;;;;;;;;;;;;;;;22.45;65.91;96170.44;585382;242;66796;-72
2022/04/23 10:55:14;;;;;;;;;;;;;;;22.44;65.98;96169.64;585407;242;66763;-72
2022/04/23 10:57:48;;;;;;;;;;;;;;;22.44;65.95;96176.89;585337;242;63110;-72
2022/04/23 11:00:19;;;;;;;;;;;;;;;22.43;65.37;96180.67;585469;241;66799;-72
2022/04/23 11:02:48;;;;;;;;;;;;;;;22.44;66.03;96168.86;585295;242;66896;-72
2022/04/23 11:13:50;;;;;;;;;;;;;;;22.44;65.77;96171.53;585371;241;65523;-74
2022/04/23 11:16:18;;;;;;;;;;;;;;;22.43;65.51;96178.78;585513;241;64938;-72
2022/04/23 11:18:47;;;;;;;;;;;;;;;22.41;66.70;96172.14;585335;242;66926;-72
2022/04/23 11:21:26;;;;;;;;;;;;;;;22.43;65.90;96186.81;585424;241;65374;-72
2022/04/23 11:23:54;;;;;;;;;;;;;;;22.42;64.96;96184.42;585348;241;66824;-73
2022/04/23 11:26:26;;;;;;;;;;;;;;;22.42;66.13;96187.09;585420;242;66792;-73
2022/04/23 11:29:00;;;;;;;;;;;;;;;22.41;66.17;96180.95;585290;242;63089;-73
2022/04/23 11:31:27;;;;;;;;;;;;;;;22.41;67.05;96177.49;585525;240;64861;-73
2022/04/23 11:33:56;;;;;;;;;;;;;;;22.42;65.63;96181.74;585333;242;64689;-73
2022/04/23 11:36:27;;;;;;;;;;;;;;;22.42;67.06;96181.74;585485;242;65278;-73
2022/04/23 11:38:55;;;;;;;;;;;;;;;22.41;66.51;96180.17;585402;242;64748;-73
2022/04/23 11:41:26;;;;;;;;;;;;;;;22.42;65.83;96184.42;585418;242;66761;-73
2022/04/23 11:43:54;;;;;;;;;;;;;;;22.41;66.52;96172.14;585494;240;63481;-73
2022/04/23 11:46:22;;;;;;;;;;;;;;;22.40;66.01;96179.38;585478;240;64603;-73
2022/04/23 11:48:51;;;;;;;;;;;;;;;22.39;66.50;96178.56;585484;241;64500;-73
2022/04/23 11:51:21;;;;;;;;;;;;;;;22.38;66.42;96187.70;585568;242;65654;-73
2022/04/23 11:53:59;;;;;;;;;;;;;;;22.39;65.68;96183.13;585434;242;67026;-73
2022/04/23 11:56:28;;;;;;;;;;;;;;;22.40;65.71;96184.73;585453;242;64501;-72
2022/04/23 11:58:57;;;;;;;;;;;;;;;22.41;65.94;96180.17;585490;240;65147;-72
2022/04/23 12:01:25;;;;;;;;;;;;;;;22.38;66.56;96179.67;585458;242;66761;-72
2022/04/23 12:03:53;;;;;;;;;;;;;;;22.38;66.07;96176.20;585477;242;66836;-72
2022/04/23 12:06:21;;;;;;;;;;;;;;;22.37;66.11;96170.06;585488;242;63016;-72
2022/04/23 12:08:50;;;;;;;;;;;;;;;22.38;66.08;96171.64;585607;240;64693;-72
2022/04/23 12:11:23;;;;;;;;;;;;;;;22.37;65.83;96175.42;585415;242;66738;-72
2022/04/23 12:13:51;;;;;;;;;;;;;;;22.38;66.51;96174.31;585379;242;63132;-72
2022/04/23 12:16:22;;;;;;;;;;;;;;;22.38;66.13;96174.31;585376;242;67024;-73
2022/04/23 12:18:51;;;;;;;;;;;;;;;22.37;66.90;96170.06;584909;240;66775;-73
2022/04/23 12:21:19;;;;;;;;;;;;;;;22.37;66.05;96172.74;585229;242;65184;-73
2022/04/23 12:23:46;;;;;;;;;;;;;;;22.37;64.59;96162.03;585369;242;66489;-72
2022/04/23 12:26:18;;;;;;;;;;;;;;;22.37;65.58;96161.22;585435;242;66713;-72
2022/04/23 12:42:31;;;;;;;;;;;;;;;22.35;66.80;96153.50;585410;241;64555;-73
2022/04/23 12:44:59;;;;;;;;;;;;;;;22.34;66.12;96149.25;585345;242;65336;-73
2022/04/23 12:47:30;;;;;;;;;;;;;;;22.35;66.32;96148.15;585510;242;66762;-73
2022/04/23 12:50:00;;;;;;;;;;;;;;;22.34;66.63;96143.91;585323;241;64564;-73
2022/04/23 12:52:34;;;;;;;;;;;;;;;22.35;66.61;96144.69;585487;241;62779;-73
2022/04/23 12:55:14;;;;;;;;;;;;;;;22.34;65.39;96148.44;585430;241;66840;-73
2022/04/23 12:57:42;;;;;;;;;;;;;;;22.33;66.89;96150.33;585384;242;66712;-73
2022/04/23 13:00:11;;;;;;;;;;;;;;;22.34;65.84;96143.08;585358;241;65479;-73
2022/04/23 13:02:40;;;;;;;;;;;;;;;22.32;66.40;96139.94;585414;242;66614;-73
2022/04/23 13:05:08;;;;;;;;;;;;;;;22.31;66.62;96127.63;585387;241;66888;-73
2022/04/23 13:10:22;;;;;;;;;;;;;;;22.32;66.11;96127.34;585384;242;68251;-73
2022/04/23 13:12:49;;;;;;;;;;;;;;;22.30;67.48;96126.05;585457;242;65887;-73
2022/04/23 13:15:18;;;;;;;;;;;;;;;22.30;66.80;96126.05;585414;242;65144;-73
2022/04/23 13:17:47;;;;;;;;;;;;;;;22.31;66.38;96133.77;585458;242;64422;-73
2022/04/23 13:20:15;;;;;;;;;;;;;;;22.32;67.79;96124.66;585411;241;66738;-73
2022/04/23 13:22:44;;;;;;;;;;;;;;;22.31;66.03;96122.27;585466;242;63129;-73
2022/04/23 13:25:13;;;;;;;;;;;;;;;22.31;66.66;96125.73;585466;242;66594;-73
2022/04/23 13:27:41;;;;;;;;;;;;;;;22.31;66.05;96123.06;585377;242;64527;-73
2022/04/23 13:30:09;;;;;;;;;;;;;;;22.30;67.46;96116.13;585425;242;63112;-74
2022/04/23 13:32:39;;;;;;;;;;;;;;;22.30;65.85;96121.48;585535;241;64399;-73
2022/04/23 13:35:07;;;;;;;;;;;;;;;22.30;66.32;96124.16;586453;242;64641;-73
2022/04/23 13:37:34;;;;;;;;;;;;;;;22.31;66.51;96119.59;586430;241;65501;-73